Time;durP1;ratioP1;P1;durP2;ratioP2;P2;SDS_P1;SDS_P2;PMS_P1;PMS_P2;Temp;Humidity;BMP_temperature;BMP_pressure;BME280_temperature;BME280_humidity;BME280_pressure;Samples;Min_cycle;Max_cycle;Signal;HPM_P1;HPM_P2
2023/05/02 00:00:17;;;;;;;5.60;2.20;;;;;;;12.53;85.37;101354.28;6275979;28;20045;-81
2023/05/02 00:03:19;;;;;;;7.25;2.70;;;;;;;12.53;85.10;101355.13;6275988;28;20045;-81
2023/05/02 00:06:20;;;;;;;5.20;2.20;;;;;;;12.46;85.48;101359.03;6275954;28;20049;-81
2023/05/02 00:09:21;;;;;;;4.82;2.28;;;;;;;12.50;85.83;101355.31;6275196;28;20056;-81
2023/05/02 00:12:24;;;;;;;5.80;2.90;;;;;;;12.47;86.24;101363.38;6275353;28;20056;-81
2023/05/02 00:15:26;;;;;;;5.32;2.95;;;;;;;12.50;85.58;101362.38;6275913;28;20041;-81
2023/05/02 00:18:28;;;;;;;4.22;3.00;;;;;;;12.50;87.33;101357.09;6275183;28;20509;-81
2023/05/02 00:21:30;;;;;;;6.65;2.90;;;;;;;12.47;87.11;101359.88;6275609;28;20437;-81
2023/05/02 00:24:31;;;;;;;6.68;3.47;;;;;;;12.46;87.35;101359.03;6275445;28;20044;-81
2023/05/02 00:27:34;;;;;;;7.07;3.05;;;;;;;12.48;87.32;101367.72;6275523;28;20130;-81
2023/05/02 00:30:36;;;;;;;6.32;3.42;;;;;;;12.41;87.31;101369.81;6275250;28;20041;-81
2023/05/02 00:33:37;;;;;;;9.10;3.83;;;;;;;12.38;88.59;101363.84;6275055;28;20326;-81
2023/05/02 00:36:38;;;;;;;8.38;4.53;;;;;;;12.35;88.98;101367.50;6275300;28;20052;-80
2023/05/02 00:39:40;;;;;;;12.50;5.50;;;;;;;12.19;91.55;101363.94;6275368;28;20045;-80
2023/05/02 00:42:43;;;;;;;9.40;4.30;;;;;;;12.19;92.67;101358.66;6275294;28;20135;-81
2023/05/02 00:45:45;;;;;;;11.07;5.38;;;;;;;12.27;93.06;101366.19;6275101;28;20372;-80
2023/05/02 00:48:46;;;;;;;15.40;6.50;;;;;;;12.29;93.96;101366.94;6274696;28;20441;-81
2023/05/02 00:51:48;;;;;;;11.98;5.45;;;;;;;12.35;93.81;101371.91;6275112;28;20053;-81
2023/05/02 00:54:49;;;;;;;10.10;4.70;;;;;;;12.25;94.51;101365.41;6275098;28;20056;-81
2023/05/02 00:57:53;;;;;;;9.00;4.72;;;;;;;12.27;94.60;101361.75;6274387;28;20056;-80
2023/05/02 01:01:07;;;;;;;13.13;5.82;;;;;;;12.32;95.19;101361.53;6274809;28;20061;-80
2023/05/02 01:04:21;;;;;;;15.98;6.60;;;;;;;12.24;95.53;101359.28;6274938;28;20049;-80
2023/05/02 01:07:38;;;;;;;12.80;6.53;;;;;;;12.22;95.57;101363.78;6274897;28;20045;-81
2023/05/02 01:10:49;;;;;;;14.90;7.05;;;;;;;12.02;97.88;101370.03;6274671;28;20049;-80
2023/05/02 01:13:54;;;;;;;17.38;7.25;;;;;;;11.99;99.55;101372.84;6274810;28;20045;-81
2023/05/02 01:16:57;;;;;;;15.05;6.80;;;;;;;12.03;99.30;101376.13;6274513;28;20051;-80
2023/05/02 01:20:03;;;;;;;14.15;6.65;;;;;;;12.02;100.00;101377.06;6275782;28;20084;-80
2023/05/02 01:23:17;;;;;;;16.40;6.65;;;;;;;12.05;100.00;101374.31;6279618;28;20056;-80
2023/05/02 01:26:28;;;;;;;16.38;7.35;;;;;;;11.95;100.00;101376.53;6279102;28;20055;-80
2023/05/02 01:29:32;;;;;;;22.27;7.78;;;;;;;11.96;100.00;101380.03;6278527;28;20048;-80
2023/05/02 01:32:37;;;;;;;22.02;8.88;;;;;;;11.90;100.00;101381.19;6275441;28;20479;-80
2023/05/02 01:35:39;;;;;;;17.35;8.85;;;;;;;11.93;100.00;101386.28;6279438;28;20589;-80
2023/05/02 01:38:43;;;;;;;21.48;9.00;;;;;;;11.94;100.00;101382.72;6279144;28;20064;-80
2023/05/02 01:41:46;;;;;;;19.50;9.27;;;;;;;12.01;100.00;101393.81;6279528;28;20057;-81
2023/05/02 01:44:50;;;;;;;19.55;8.32;;;;;;;12.01;100.00;101388.56;6279450;28;20441;-81
2023/05/02 01:47:52;;;;;;;19.20;8.30;;;;;;;12.04;100.00;101391.03;6278674;28;20394;-81
2023/05/02 01:50:56;;;;;;;21.17;8.75;;;;;;;11.99;100.00;101396.53;6279537;28;20045;-81
2023/05/02 01:53:59;;;;;;;20.77;9.27;;;;;;;11.98;100.00;101391.31;6277993;28;20449;-80
2023/05/02 01:57:02;;;;;;;17.27;8.63;;;;;;;12.02;100.00;101390.25;6278694;28;20128;-81
2023/05/02 02:00:08;;;;;;;21.33;9.57;;;;;;;12.03;100.00;101397.22;6278755;28;20103;-81
2023/05/02 02:03:10;;;;;;;16.92;8.57;;;;;;;11.89;100.00;101403.16;6279270;28;20164;-80
2023/05/02 02:06:14;;;;;;;20.27;9.50;;;;;;;11.92;100.00;101403.88;6278443;28;20447;-82
2023/05/02 02:09:15;;;;;;;22.10;9.52;;;;;;;11.74;100.00;101399.47;6278744;28;20376;-80
2023/05/02 02:12:23;;;;;;;22.58;9.13;;;;;;;11.84;100.00;101416.53;6278332;28;20045;-80
2023/05/02 02:15:29;;;;;;;19.13;8.48;;;;;;;11.88;100.00;101410.22;6277386;28;20052;-81
2023/05/02 02:18:35;;;;;;;23.35;9.35;;;;;;;11.98;100.00;101413.25;6277107;28;20327;-81
2023/05/02 02:21:37;;;;;;;18.58;8.70;;;;;;;11.91;100.00;101411.84;6276912;28;20049;-81
2023/05/02 02:24:40;;;;;;;23.60;9.60;;;;;;;11.89;100.00;101413.69;6276966;28;20123;-80
2023/05/02 02:27:41;;;;;;;16.77;7.30;;;;;;;11.94;100.00;101422.22;6270525;28;20048;-81
2023/05/02 02:30:44;;;;;;;22.73;8.55;;;;;;;11.92;100.00;101427.56;6276001;28;20049;-81
2023/05/02 02:33:46;;;;;;;18.35;8.55;;;;;;;11.90;100.00;101431.22;6269589;28;20050;-81
2023/05/02 02:36:53;;;;;;;23.17;9.43;;;;;;;11.79;100.00;101426.41;6252140;28;20052;-81
2023/05/02 02:40:04;;;;;;;22.73;8.40;;;;;;;11.81;100.00;101426.34;6252278;28;20437;-81
2023/05/02 02:43:12;;;;;;;21.02;8.90;;;;;;;11.87;100.00;101432.22;6262680;28;20053;-81
2023/05/02 02:46:27;;;;;;;18.33;8.07;;;;;;;11.77;100.00;101432.69;6276544;28;20041;-81
2023/05/02 02:49:38;;;;;;;19.92;9.13;;;;;;;11.75;100.00;101435.38;6276392;28;20059;-82
2023/05/02 02:52:50;;;;;;;18.08;7.97;;;;;;;11.73;100.00;101437.25;6276632;28;20048;-82
2023/05/02 02:55:57;;;;;;;19.20;8.13;;;;;;;11.65;100.00;101444.66;6276420;28;20049;-82
2023/05/02 02:59:04;;;;;;;20.63;8.18;;;;;;;11.62;100.00;101448.25;6276135;28;20049;-81
2023/05/02 03:02:09;;;;;;;23.17;8.68;;;;;;;11.72;100.00;101448.72;6276643;28;20057;-81
2023/05/02 03:05:11;;;;;;;18.33;8.75;;;;;;;11.72;100.00;101453.97;6276049;28;20507;-82
2023/05/02 03:08:13;;;;;;;19.98;7.75;;;;;;;11.68;100.00;101455.91;6276013;28;20049;-81
2023/05/02 03:11:14;;;;;;;18.27;7.55;;;;;;;11.74;100.00;101464.44;6276300;28;20482;-82
2023/05/02 03:14:15;;;;;;;20.40;8.50;;;;;;;11.70;100.00;101468.97;6240060;28;1058259;-81
2023/05/02 03:17:18;;;;;;;21.08;9.02;;;;;;;11.71;100.00;101475.94;6277180;28;20041;-82
2023/05/02 03:20:20;;;;;;;19.55;7.93;;;;;;;11.61;100.00;101477.31;6277259;28;20438;-83
2023/05/02 03:23:21;;;;;;;24.83;9.57;;;;;;;11.53;100.00;101493.44;6277228;28;20084;-80
2023/05/02 03:26:22;;;;;;;17.45;7.28;;;;;;;11.43;100.00;101481.63;6277188;28;20036;-81
2023/05/02 03:29:24;;;;;;;19.27;7.30;;;;;;;11.26;100.00;101490.25;6254693;28;20045;-81
2023/05/02 03:32:27;;;;;;;16.77;7.13;;;;;;;11.20;100.00;101494.97;6258738;28;20045;-82
2023/05/02 03:35:28;;;;;;;20.10;7.35;;;;;;;11.09;100.00;101498.06;6270026;28;20429;-82
2023/05/02 03:38:30;;;;;;;18.38;7.50;;;;;;;11.11;100.00;101489.16;6269649;28;20672;-82
2023/05/02 03:41:31;;;;;;;17.33;6.85;;;;;;;11.14;100.00;101501.34;6268243;28;20159;-82
2023/05/02 03:44:32;;;;;;;13.55;6.03;;;;;;;11.23;100.00;101506.22;6267942;28;20033;-81
2023/05/02 03:47:35;;;;;;;15.30;6.15;;;;;;;11.10;100.00;101508.50;6270829;28;20045;-82
2023/05/02 03:50:36;;;;;;;12.70;4.90;;;;;;;11.09;100.00;101522.59;6260076;28;20076;-82
2023/05/02 03:53:38;;;;;;;14.48;5.03;;;;;;;11.09;100.00;101522.59;6255222;28;20043;-83
2023/05/02 03:56:39;;;;;;;12.85;4.75;;;;;;;11.09;100.00;101527.00;6255227;28;20052;-82
2023/05/02 03:59:41;;;;;;;11.85;4.38;;;;;;;11.01;100.00;101534.34;6259623;28;20037;-82
2023/05/02 04:02:44;;;;;;;9.80;4.05;;;;;;;10.95;100.00;101548.63;6256220;28;20119;-84
2023/05/02 04:05:46;;;;;;;6.20;3.13;;;;;;;10.86;100.00;101554.28;6248195;28;20123;-82
2023/05/02 04:08:47;;;;;;;5.30;2.95;;;;;;;10.73;100.00;101561.81;6254634;28;20045;-83
2023/05/02 04:11:48;;;;;;;4.28;1.83;;;;;;;10.54;100.00;101577.47;6262143;28;20072;-82
2023/05/02 04:14:50;;;;;;;3.47;1.75;;;;;;;10.32;100.00;101587.09;6259492;28;20361;-81
2023/05/02 04:17:53;;;;;;;2.10;1.50;;;;;;;10.25;100.00;101594.34;6253032;28;20080;-81
2023/05/02 04:20:54;;;;;;;3.05;1.45;;;;;;;10.15;100.00;101592.97;6254158;28;20045;-84
2023/05/02 04:23:55;;;;;;;5.50;1.55;;;;;;;10.00;100.00;101604.91;6253332;28;20049;-82
2023/05/02 04:26:57;;;;;;;5.05;1.48;;;;;;;9.86;100.00;101625.56;6263846;28;20053;-85
2023/05/02 04:29:58;;;;;;;5.57;1.67;;;;;;;9.85;100.00;101624.69;6275386;28;20053;-83
2023/05/02 04:33:01;;;;;;;3.30;1.30;;;;;;;9.86;100.00;101622.94;6275950;28;20060;-85
2023/05/02 04:36:02;;;;;;;4.85;1.50;;;;;;;9.81;100.00;101630.09;6275707;28;20067;-85
2023/05/02 04:39:06;;;;;;;3.03;1.33;;;;;;;9.81;100.00;101637.97;6275000;28;20045;-84
2023/05/02 04:42:08;;;;;;;7.82;3.22;;;;;;;9.69;100.00;101647.16;6273173;28;20053;-84
2023/05/02 04:45:09;;;;;;;5.93;1.40;;;;;;;9.72;100.00;101647.06;6275320;28;20056;-85
2023/05/02 04:48:12;;;;;;;5.75;1.70;;;;;;;9.71;100.00;101657.59;6275085;28;20045;-83
2023/05/02 04:51:16;;;;;;;6.20;1.38;;;;;;;9.44;100.00;101670.75;6275490;28;20045;-84
2023/05/02 04:54:17;;;;;;;11.68;3.10;;;;;;;9.25;100.00;101670.50;6275122;28;20436;-84
2023/05/02 04:57:19;;;;;;;11.20;2.22;;;;;;;9.14;100.00;101684.00;6274952;28;20052;-84
2023/05/02 05:00:21;;;;;;;3.33;1.83;;;;;;;8.96;100.00;101692.44;6275848;28;20056;-84
2023/05/02 05:03:24;;;;;;;9.60;2.10;;;;;;;9.03;100.00;101695.72;6275307;28;20087;-84
2023/05/02 05:06:25;;;;;;;14.77;3.53;;;;;;;9.08;100.00;101699.03;6274925;28;20071;-85
2023/05/02 05:09:27;;;;;;;5.85;2.47;;;;;;;9.03;100.00;101701.81;6274966;28;20044;-83
2023/05/02 05:12:28;;;;;;;8.80;2.60;;;;;;;9.06;100.00;101700.88;6275193;28;20452;-83
2023/05/02 05:15:30;;;;;;;7.07;2.42;;;;;;;9.11;100.00;101710.28;6275208;28;20043;-85
2023/05/02 05:18:39;;;;;;;6.78;2.22;;;;;;;9.10;100.00;101719.06;6274464;28;20452;-85
2023/05/02 05:21:40;;;;;;;13.05;2.50;;;;;;;9.19;100.00;101725.81;6274947;28;20052;-85
2023/05/02 05:24:41;;;;;;;11.52;2.42;;;;;;;9.03;100.00;101732.41;6274921;28;20064;-83
2023/05/02 05:27:43;;;;;;;14.95;2.25;;;;;;;9.03;100.00;101735.03;6274122;28;20045;-83
2023/05/02 05:30:44;;;;;;;10.25;2.33;;;;;;;9.03;100.00;101743.75;6269330;28;20049;-85
2023/05/02 05:33:47;;;;;;;8.13;1.88;;;;;;;9.06;100.00;101758.56;6266717;28;20067;-86
2023/05/02 05:36:48;;;;;;;12.82;2.20;;;;;;;9.04;100.00;101748.13;6274571;28;20052;-84
2023/05/02 05:39:50;;;;;;;8.02;2.13;;;;;;;9.11;100.00;101756.66;6275009;28;20057;-85
2023/05/02 05:42:51;;;;;;;9.88;2.55;;;;;;;9.08;100.00;101764.59;6275101;28;20052;-87
2023/05/02 05:45:53;;;;;;;8.50;2.05;;;;;;;9.17;100.00;101768.69;6275206;28;20051;-86
2023/05/02 05:48:55;;;;;;;11.68;2.47;;;;;;;9.24;100.00;101776.34;6274340;28;20049;-85
2023/05/02 05:51:57;;;;;;;9.00;1.80;;;;;;;9.21;100.00;101786.06;6274628;28;20048;-86
2023/05/02 05:54:58;;;;;;;20.85;4.07;;;;;;;9.19;100.00;101790.50;6267324;28;20389;-84
2023/05/02 05:57:59;;;;;;;4.72;1.83;;;;;;;9.11;100.00;101790.72;6274651;28;20144;-86
2023/05/02 06:01:01;;;;;;;11.80;2.10;;;;;;;9.08;100.00;101793.44;6274673;28;20045;-87
2023/05/02 06:04:04;;;;;;;10.13;2.75;;;;;;;9.04;100.00;101800.56;6274723;28;20445;-84
2023/05/02 06:07:05;;;;;;;9.77;1.65;;;;;;;9.10;100.00;101800.38;6277091;28;20135;-84
2023/05/02 06:10:08;;;;;;;18.00;3.03;;;;;;;9.13;100.00;101802.91;6279309;28;20045;-85
2023/05/02 06:13:10;;;;;;;9.05;2.00;;;;;;;9.18;100.00;101817.66;6279109;28;20041;-85
2023/05/02 06:16:11;;;;;;;20.58;1.95;;;;;;;9.26;100.00;101819.09;6278881;28;20053;-85
2023/05/02 06:19:14;;;;;;;13.93;2.85;;;;;;;9.17;100.00;101819.38;6278978;28;20041;-84
2023/05/02 06:22:16;;;;;;;8.98;1.85;;;;;;;9.25;100.00;101814.78;6278978;28;20349;-85
2023/05/02 06:25:17;;;;;;;5.70;1.83;;;;;;;9.26;100.00;101815.63;6278762;28;20040;-85
2023/05/02 06:28:18;;;;;;;12.18;2.17;;;;;;;9.27;100.00;101826.09;6277967;28;20056;-84
2023/05/02 06:31:20;;;;;;;5.75;1.48;;;;;;;9.22;100.00;101833.25;6278534;28;20048;-85
2023/05/02 06:34:23;;;;;;;15.40;3.10;;;;;;;9.34;100.00;101839.88;6278145;28;20056;-85
2023/05/02 06:37:24;;;;;;;6.90;1.67;;;;;;;9.33;100.00;101840.78;6278780;28;20048;-85
2023/05/02 06:40:25;;;;;;;8.65;2.08;;;;;;;9.28;100.00;101853.19;6278112;28;20048;-84
2023/05/02 06:43:27;;;;;;;7.82;1.83;;;;;;;9.35;100.00;101858.16;6278152;28;20064;-87
2023/05/02 06:46:29;;;;;;;9.45;1.95;;;;;;;9.19;100.00;101859.56;6277919;28;20041;-83
2023/05/02 06:49:32;;;;;;;17.85;2.25;;;;;;;9.32;100.00;101868.78;6277721;28;20120;-83
2023/05/02 06:52:33;;;;;;;10.80;1.90;;;;;;;9.37;100.00;101874.75;6278480;28;20052;-85
2023/05/02 06:55:35;;;;;;;8.48;1.83;;;;;;;9.38;100.00;101871.19;6277764;28;20542;-84
2023/05/02 06:58:36;;;;;;;10.65;2.05;;;;;;;9.27;100.00;101885.56;6275583;28;20377;-84
2023/05/02 07:01:37;;;;;;;7.65;2.13;;;;;;;9.39;100.00;101893.91;6272594;28;20048;-84
2023/05/02 07:04:40;;;;;;;4.88;1.80;;;;;;;9.44;100.00;101899.00;6277598;28;20071;-84
2023/05/02 07:07:42;;;;;;;6.63;2.33;;;;;;;9.30;100.00;101904.66;6277319;28;20049;-80
2023/05/02 07:10:43;;;;;;;4.63;1.35;;;;;;;9.47;100.00;101917.28;6270930;28;20177;-82
2023/05/02 07:13:45;;;;;;;4.35;1.10;;;;;;;9.33;100.00;101917.72;6277530;28;20052;-85
2023/05/02 07:16:46;;;;;;;7.32;1.55;;;;;;;9.38;100.00;101921.06;6268740;28;20071;-82
2023/05/02 07:19:50;;;;;;;14.55;1.40;;;;;;;9.29;100.00;101926.56;6276628;28;20051;-84
2023/05/02 07:22:51;;;;;;;9.70;2.00;;;;;;;9.33;100.00;101922.09;6277099;28;20068;-82
2023/05/02 07:25:52;;;;;;;7.60;1.98;;;;;;;9.40;100.00;101927.13;6265191;28;20452;-82
2023/05/02 07:28:54;;;;;;;7.28;1.77;;;;;;;9.40;100.00;101937.63;6276155;28;20052;-83
2023/05/02 07:31:55;;;;;;;5.07;1.27;;;;;;;9.22;100.00;101948.66;6275947;28;20357;-82
2023/05/02 07:34:58;;;;;;;5.95;2.17;;;;;;;9.17;100.00;101950.50;6276520;28;20059;-83
2023/05/02 07:37:59;;;;;;;5.97;2.03;;;;;;;9.08;100.00;101948.16;6276564;28;20052;-84
2023/05/02 07:41:01;;;;;;;4.95;1.25;;;;;;;9.13;100.00;101959.41;6276913;28;20045;-84
2023/05/02 07:44:02;;;;;;;3.50;1.95;;;;;;;9.02;100.00;101958.81;6276767;28;20365;-83
2023/05/02 07:47:03;;;;;;;7.63;2.03;;;;;;;9.05;100.00;101962.22;6276464;28;20045;-82
2023/05/02 07:50:07;;;;;;;1.98;1.20;;;;;;;9.06;100.00;101961.31;6276268;28;20049;-83
2023/05/02 07:53:09;;;;;;;6.15;1.33;;;;;;;9.09;100.00;101961.25;6276597;28;20045;-83
2023/05/02 07:56:11;;;;;;;6.28;1.50;;;;;;;9.11;100.00;101975.16;6276169;28;20052;-84
2023/05/02 07:59:13;;;;;;;6.43;1.15;;;;;;;9.09;100.00;101986.59;6275368;28;20052;-83
2023/05/02 08:02:18;;;;;;;10.70;1.75;;;;;;;8.96;100.00;101983.44;6276112;28;20048;-83
2023/05/02 08:05:21;;;;;;;4.80;1.33;;;;;;;8.99;100.00;101990.34;6276220;28;20041;-83
2023/05/02 08:08:23;;;;;;;3.63;1.05;;;;;;;8.92;100.00;102007.16;6276075;28;20048;-83
2023/05/02 08:11:24;;;;;;;3.83;1.23;;;;;;;8.75;100.00;102007.59;6276486;28;20060;-83
2023/05/02 08:14:26;;;;;;;5.07;2.15;;;;;;;8.91;100.00;102005.44;6275947;28;20048;-83
2023/05/02 08:17:27;;;;;;;8.35;1.90;;;;;;;9.10;100.00;102012.78;6275810;28;20353;-83
2023/05/02 08:20:30;;;;;;;4.22;1.45;;;;;;;9.18;100.00;102014.34;6276159;28;20197;-83
2023/05/02 08:23:33;;;;;;;3.60;1.60;;;;;;;9.20;100.00;102021.25;6276230;28;20041;-83
2023/05/02 08:26:35;;;;;;;8.85;1.70;;;;;;;9.29;100.00;102026.25;6275617;28;20048;-81
2023/05/02 08:29:36;;;;;;;5.75;1.52;;;;;;;9.28;100.00;102026.31;6274907;28;20056;-81
2023/05/02 08:32:38;;;;;;;8.60;1.40;;;;;;;9.29;100.00;102030.63;6276181;28;20418;-83
2023/05/02 08:35:40;;;;;;;5.97;1.58;;;;;;;9.31;100.00;102034.06;6275722;28;20040;-84
2023/05/02 08:38:42;;;;;;;4.10;1.10;;;;;;;9.40;100.00;102039.06;6275913;28;20044;-85
2023/05/02 08:41:44;;;;;;;1.10;0.88;;;;;;;9.35;100.00;102041.81;6275540;28;20357;-85
2023/05/02 08:44:46;;;;;;;5.72;1.13;;;;;;;9.30;100.00;102055.97;6276386;28;20191;-83
2023/05/02 08:47:49;;;;;;;2.95;0.93;;;;;;;9.39;100.00;102046.06;6275829;28;20041;-83
2023/05/02 08:50:53;;;;;;;3.63;1.33;;;;;;;9.38;100.00;102059.25;6276416;28;20052;-85
2023/05/02 08:53:54;;;;;;;2.92;1.05;;;;;;;9.38;100.00;102060.09;6275761;28;20059;-85
2023/05/02 08:56:58;;;;;;;3.58;1.50;;;;;;;9.35;100.00;102065.41;6275401;28;20048;-84
2023/05/02 08:59:59;;;;;;;3.08;1.33;;;;;;;9.37;100.00;102071.50;6275488;28;20178;-83
2023/05/02 09:03:11;;;;;;;3.08;1.52;;;;;;;9.52;100.00;102066.72;6275563;28;20045;-83
2023/05/02 09:06:16;;;;;;;2.92;1.38;;;;;;;9.63;100.00;102065.53;6275426;28;20144;-84
2023/05/02 09:09:18;;;;;;;4.10;1.73;;;;;;;9.76;100.00;102080.94;6275574;28;20049;-83
2023/05/02 09:12:25;;;;;;;3.67;1.52;;;;;;;9.74;100.00;102075.72;6275120;28;20044;-85
2023/05/02 09:15:26;;;;;;;8.43;1.88;;;;;;;9.82;100.00;102079.00;6275319;28;20452;-83
2023/05/02 09:18:33;;;;;;;10.40;2.38;;;;;;;10.00;99.63;102082.84;6274700;28;20457;-82
2023/05/02 09:21:38;;;;;;;6.18;2.20;;;;;;;9.76;98.36;102088.78;6275102;28;20049;-84
2023/05/02 09:24:40;;;;;;;7.03;2.13;;;;;;;9.74;98.42;102090.63;6275244;28;20048;-83
2023/05/02 09:27:52;;;;;;;3.97;1.95;;;;;;;9.77;97.19;102091.41;6274624;28;20048;-84
2023/05/02 09:31:07;;;;;;;12.48;2.38;;;;;;;9.77;97.74;102101.03;6267827;28;20048;-81
2023/05/02 09:34:09;;;;;;;16.67;2.78;;;;;;;9.85;96.22;102096.41;6274353;28;20120;-82
2023/05/02 09:37:35;;;;;;;13.35;3.75;;;;;;;9.82;94.82;102105.25;6275097;28;20041;-82
2023/05/02 09:40:37;;;;;;;7.32;2.15;;;;;;;9.91;94.36;102112.88;6273573;28;20127;-83
2023/05/02 09:43:39;;;;;;;5.32;2.13;;;;;;;10.00;93.12;102111.75;6272880;28;20052;-89
2023/05/02 09:46:41;;;;;;;2.83;1.63;;;;;;;9.88;89.51;102119.97;6271041;28;20349;-87
2023/05/02 09:49:44;;;;;;;8.27;3.17;;;;;;;9.82;91.15;102122.78;6272494;28;20056;-85
2023/05/02 09:53:01;;;;;;;5.43;2.83;;;;;;;9.78;89.50;102115.88;6265501;28;20568;-82
2023/05/02 09:56:03;;;;;;;3.20;2.00;;;;;;;9.73;88.42;102125.66;6279593;28;20735;-84
2023/05/02 09:59:15;;;;;;;13.20;3.72;;;;;;;9.80;91.10;102124.56;6279370;28;21259;-86
2023/05/02 10:02:16;;;;;;;9.38;2.33;;;;;;;9.92;90.81;102134.72;6270916;28;20056;-82
2023/05/02 10:05:19;;;;;;;2.92;1.67;;;;;;;10.03;87.30;102139.66;6278945;28;20045;-85
2023/05/02 10:08:24;;;;;;;3.28;1.20;;;;;;;9.80;85.69;102151.69;6279194;28;20118;-85
2023/05/02 10:11:26;;;;;;;3.10;1.40;;;;;;;10.06;88.53;102155.34;6279377;28;20037;-84
2023/05/02 10:14:28;;;;;;;3.47;1.67;;;;;;;10.13;85.80;102144.63;6279300;28;20053;-82
2023/05/02 10:17:31;;;;;;;7.00;2.28;;;;;;;10.14;84.42;102148.13;6278054;28;20350;-83
2023/05/02 10:20:36;;;;;;;5.55;2.03;;;;;;;10.17;81.61;102142.75;6278826;28;20060;-84
2023/05/02 10:23:42;;;;;;;9.88;1.90;;;;;;;10.23;80.96;102147.00;6278679;28;20045;-83
2023/05/02 10:26:44;;;;;;;4.20;1.65;;;;;;;10.13;79.31;102143.78;6278838;28;20098;-83
2023/05/02 10:29:46;;;;;;;4.55;1.52;;;;;;;10.22;80.20;102159.28;6274947;28;20330;-83
2023/05/02 10:32:49;;;;;;;11.30;1.90;;;;;;;10.20;79.67;102157.56;6278800;28;20045;-84
2023/05/02 10:35:50;;;;;;;2.08;1.10;;;;;;;10.13;79.26;102154.28;6278931;28;20053;-83
2023/05/02 10:38:54;;;;;;;9.13;1.88;;;;;;;10.23;82.41;102157.50;6278224;28;20056;-83
2023/05/02 10:41:57;;;;;;;2.55;1.30;;;;;;;10.53;80.50;102158.38;6278799;28;20056;-87
2023/05/02 10:44:59;;;;;;;7.15;1.98;;;;;;;10.63;77.54;102157.19;6278885;28;20056;-82
2023/05/02 10:48:13;;;;;;;4.05;1.58;;;;;;;10.69;78.60;102158.78;6278028;28;20045;-81
2023/05/02 10:51:27;;;;;;;4.03;1.55;;;;;;;10.75;79.38;102158.56;6274657;28;20052;-83
2023/05/02 10:54:30;;;;;;;7.10;1.65;;;;;;;10.63;77.91;102178.22;6276070;28;20055;-86
2023/05/02 10:57:31;;;;;;;3.22;1.30;;;;;;;10.49;80.24;102176.03;6278213;28;20128;-87
2023/05/02 11:00:34;;;;;;;2.90;1.60;;;;;;;10.45;78.46;102168.28;6277331;28;20072;-82
2023/05/02 11:03:55;;;;;;;3.72;1.00;;;;;;;10.47;77.50;102174.34;6277781;28;20052;-83
2023/05/02 11:07:17;;;;;;;2.67;1.17;;;;;;;10.44;81.81;102175.28;6270809;28;20170;-83
2023/05/02 11:10:27;;;;;;;8.07;1.50;;;;;;;10.58;83.45;102181.00;6277891;28;20044;-85
2023/05/02 11:13:49;;;;;;;2.92;1.17;;;;;;;10.48;81.98;102186.56;6277832;28;20045;-85
2023/05/02 11:17:06;;;;;;;5.65;1.30;;;;;;;10.63;81.86;102186.13;6277540;28;20128;-83
2023/05/02 11:20:28;;;;;;;4.07;1.38;;;;;;;10.61;81.11;102194.03;6273411;28;20049;-82
2023/05/02 11:23:30;;;;;;;7.03;1.00;;;;;;;10.54;77.93;102189.03;6275466;28;20491;-83
2023/05/02 11:26:32;;;;;;;1.92;0.98;;;;;;;10.53;77.83;102190.75;6276932;28;20071;-82
2023/05/02 11:29:52;;;;;;;7.43;1.42;;;;;;;10.44;75.67;102188.41;6276600;28;20363;-86
2023/05/02 11:33:15;;;;;;;1.10;0.70;;;;;;;10.58;73.38;102188.88;6269976;28;20179;-83
2023/05/02 11:36:28;;;;;;;2.85;1.23;;;;;;;10.77;73.89;102185.69;6277353;28;20349;-88
2023/05/02 11:39:29;;;;;;;6.78;1.10;;;;;;;10.78;66.63;102185.63;6276956;28;20052;-83
2023/05/02 11:42:33;;;;;;;2.63;1.15;;;;;;;10.88;68.54;102194.94;6277652;28;20053;-84
2023/05/02 11:45:36;;;;;;;0.73;0.73;;;;;;;10.94;66.06;102188.63;6272777;28;20041;-83
2023/05/02 11:48:37;;;;;;;5.72;1.05;;;;;;;10.96;65.74;102192.09;6271653;28;21892;-92
2023/05/02 11:51:38;;;;;;;6.88;1.40;;;;;;;11.00;63.52;102188.47;6271239;28;20052;-83
2023/05/02 11:54:40;;;;;;;3.13;1.33;;;;;;;11.12;63.45;102195.06;6275790;28;20055;-83
2023/05/02 11:57:43;;;;;;;1.80;0.98;;;;;;;11.14;64.29;102195.91;6275795;28;20353;-84
2023/05/02 12:00:46;;;;;;;4.28;1.10;;;;;;;10.97;63.50;102196.44;6275489;28;20148;-84
2023/05/02 12:03:51;;;;;;;3.13;1.10;;;;;;;10.95;65.67;102202.66;6267252;28;20049;-84
2023/05/02 12:06:56;;;;;;;1.30;0.98;;;;;;;10.89;67.53;102206.31;6276342;28;20049;-85
2023/05/02 12:09:57;;;;;;;3.60;1.02;;;;;;;10.76;65.62;102216.34;6276437;28;20057;-84
2023/05/02 12:13:05;;;;;;;4.68;1.33;;;;;;;10.70;65.97;102218.31;6275557;28;20056;-81
2023/05/02 12:16:07;;;;;;;2.80;0.75;;;;;;;10.62;66.19;102211.53;6274351;28;20049;-84
2023/05/02 12:19:09;;;;;;;6.55;1.05;;;;;;;10.76;67.51;102216.34;6276508;28;20053;-81
2023/05/02 12:22:12;;;;;;;4.63;1.00;;;;;;;10.76;66.58;102219.00;6276122;28;20057;-81
2023/05/02 12:25:13;;;;;;;2.83;1.00;;;;;;;10.85;64.08;102220.47;6275650;28;20404;-82
2023/05/02 12:28:17;;;;;;;4.10;1.80;;;;;;;10.87;62.31;102223.94;6275388;28;20044;-83
2023/05/02 12:31:19;;;;;;;1.88;1.05;;;;;;;10.98;64.04;102226.22;6275843;28;20358;-82
2023/05/02 12:34:32;;;;;;;4.35;1.33;;;;;;;10.94;64.40;102230.72;6276163;28;20421;-84
2023/05/02 12:37:33;;;;;;;1.67;1.50;;;;;;;10.93;65.83;102239.53;6275423;28;20044;-82
2023/05/02 12:40:35;;;;;;;3.90;0.95;;;;;;;10.89;66.00;102241.38;6275515;28;20344;-82
2023/05/02 12:43:50;;;;;;;2.88;0.80;;;;;;;10.86;65.69;102254.66;6275733;28;20049;-83
2023/05/02 12:46:59;;;;;;;0.55;0.50;;;;;;;10.73;65.89;102252.44;6275470;28;20445;-82
2023/05/02 12:50:00;;;;;;;3.55;0.93;;;;;;;10.65;68.25;102252.66;6275266;28;20053;-82
2023/05/02 12:53:02;;;;;;;0.95;0.40;;;;;;;10.69;67.39;102254.28;6266459;28;20060;-80
2023/05/02 12:56:04;;;;;;;3.28;0.80;;;;;;;10.70;66.41;102252.50;6271415;28;20053;-85
2023/05/02 12:59:08;;;;;;;2.50;0.70;;;;;;;10.76;67.80;102249.69;6275048;28;20453;-81
2023/05/02 13:02:09;;;;;;;1.58;0.60;;;;;;;10.91;67.80;102254.50;6271770;28;20174;-85
2023/05/02 13:05:14;;;;;;;0.75;0.60;;;;;;;10.92;66.09;102264.13;6275412;28;20426;-82
2023/05/02 13:08:15;;;;;;;1.50;0.68;;;;;;;10.94;66.34;102259.66;6271238;28;20101;-82
2023/05/02 13:11:18;;;;;;;3.40;0.90;;;;;;;10.92;66.65;102264.13;6274849;28;20067;-83
2023/05/02 13:14:21;;;;;;;2.50;1.08;;;;;;;10.85;66.62;102258.16;6267383;28;20045;-81
2023/05/02 13:17:22;;;;;;;0.85;0.70;;;;;;;11.04;68.18;102270.78;6278811;28;20127;-80
2023/05/02 13:20:23;;;;;;;1.55;0.88;;;;;;;11.07;71.57;102275.91;6272747;28;20053;-81
2023/05/02 13:23:25;;;;;;;3.10;0.88;;;;;;;11.08;70.90;102272.38;6271394;28;20052;-81
2023/05/02 13:26:26;;;;;;;1.67;1.02;;;;;;;11.03;71.09;102272.53;6280350;28;20078;-82
2023/05/02 13:29:30;;;;;;;6.55;0.90;;;;;;;10.86;69.66;102270.44;6279473;28;20056;-82
2023/05/02 13:32:31;;;;;;;1.42;0.70;;;;;;;10.92;72.62;102272.00;6272550;28;20049;-84
2023/05/02 13:35:33;;;;;;;1.73;1.10;;;;;;;10.93;67.69;102277.19;6279011;28;20045;-81
2023/05/02 13:38:34;;;;;;;1.85;0.85;;;;;;;11.02;70.46;102278.69;6279047;28;20059;-81
2023/05/02 13:41:36;;;;;;;4.70;0.80;;;;;;;10.92;67.96;102279.88;6274462;28;20049;-80
2023/05/02 13:44:38;;;;;;;2.85;1.58;;;;;;;10.84;69.96;102281.88;6274927;28;20060;-80
2023/05/02 13:47:40;;;;;;;1.10;0.73;;;;;;;10.74;71.33;102275.19;6279288;28;20037;-82
2023/05/02 13:50:41;;;;;;;12.05;1.20;;;;;;;10.84;71.76;102281.88;6279520;28;20136;-79
2023/05/02 13:53:43;;;;;;;1.88;0.90;;;;;;;10.93;75.32;102285.09;6278996;28;20049;-81
2023/05/02 13:56:44;;;;;;;2.20;1.52;;;;;;;11.09;71.85;102289.91;6278621;28;20052;-85
2023/05/02 13:59:47;;;;;;;4.25;1.00;;;;;;;11.14;70.25;102285.38;6270862;28;20060;-82
2023/05/02 14:02:48;;;;;;;2.92;0.90;;;;;;;11.07;68.67;102289.94;6272320;28;20049;-82
2023/05/02 14:05:49;;;;;;;0.70;0.70;;;;;;;11.05;69.66;102289.13;6279238;28;20060;-80
2023/05/02 14:08:51;;;;;;;1.70;1.02;;;;;;;10.99;70.40;102293.69;6272312;28;20071;-82